Time;durP1;ratioP1;P1;durP2;ratioP2;P2;SDS_P1;SDS_P2;PMS_P1;PMS_P2;Temp;Humidity;BMP_temperature;BMP_pressure;BME280_temperature;BME280_humidity;BME280_pressure;Samples;Min_cycle;Max_cycle;Signal;HPM_P1;HPM_P2
2021/11/27 00:05:07;;;;;;;;;101.67;83.33;;;;;;;;6489887;39;8883;-56
2021/11/27 00:11:10;;;;;;;;;96.00;76.67;;;;;;;;6490007;31;9003;-55
2021/11/27 00:17:13;;;;;;;;;101.33;79.67;;;;;;;;6489438;46;8879;-56
2021/11/27 00:23:15;;;;;;;;;94.67;72.00;;;;;;;;6489737;39;9515;-54
2021/11/27 00:29:18;;;;;;;;;103.00;80.00;;;;;;;;6488567;31;8946;-55
2021/11/27 00:35:23;;;;;;;;;108.00;82.33;;;;;;;;6489657;39;8891;-55
2021/11/27 00:41:26;;;;;;;;;95.67;73.67;;;;;;;;6488982;39;8879;-55
2021/11/27 00:47:29;;;;;;;;;95.33;73.67;;;;;;;;6489110;46;8966;-55
2021/11/27 00:53:31;;;;;;;;;90.25;68.50;;;;;;;;6489466;39;9531;-56
2021/11/27 00:59:34;;;;;;;;;85.75;68.00;;;;;;;;6488137;46;8855;-53
2021/11/27 01:05:37;;;;;;;;;82.25;65.50;;;;;;;;6488346;47;8893;-55
2021/11/27 01:11:46;;;;;;;;;79.50;64.00;;;;;;;;6488844;39;8967;-56
2021/11/27 01:17:50;;;;;;;;;84.50;66.75;;;;;;;;6488747;47;8916;-54
2021/11/27 01:23:58;;;;;;;;;85.00;66.50;;;;;;;;6488059;39;8879;-57
2021/11/27 01:30:01;;;;;;;;;83.75;65.00;;;;;;;;6488533;47;8899;-54
2021/11/27 01:36:05;;;;;;;;;78.50;63.00;;;;;;;;6488227;39;9511;-54
2021/11/27 01:42:09;;;;;;;;;74.00;59.00;;;;;;;;6489494;39;8891;-55
2021/11/27 01:48:15;;;;;;;;;80.00;62.50;;;;;;;;6490571;39;8914;-54
2021/11/27 01:54:19;;;;;;;;;80.75;63.25;;;;;;;;6490119;46;8946;-52
2021/11/27 02:00:25;;;;;;;;;81.00;64.00;;;;;;;;6490793;39;9570;-54
2021/11/27 02:06:29;;;;;;;;;76.50;61.50;;;;;;;;6490114;39;8867;-56
2021/11/27 02:12:32;;;;;;;;;69.00;54.00;;;;;;;;6490403;39;9070;-53
2021/11/27 02:18:35;;;;;;;;;74.75;56.50;;;;;;;;6489758;46;9005;-54
2021/11/27 02:24:37;;;;;;;;;74.00;58.50;;;;;;;;6490135;39;9550;-55
2021/11/27 02:30:41;;;;;;;;;73.00;58.00;;;;;;;;6489782;46;8903;-52
2021/11/27 02:36:53;;;;;;;;;72.50;57.75;;;;;;;;6489476;39;9377;-53
2021/11/27 02:42:56;;;;;;;;;66.50;53.00;;;;;;;;6490266;39;9027;-56
2021/11/27 02:48:59;;;;;;;;;67.75;54.25;;;;;;;;6490251;46;8939;-55
2021/11/27 02:55:01;;;;;;;;;61.50;52.75;;;;;;;;6490848;39;8935;-56
2021/11/27 03:01:06;;;;;;;;;65.25;54.25;;;;;;;;6489746;39;8847;-55
2021/11/27 03:07:10;;;;;;;;;64.25;50.50;;;;;;;;6489988;31;8872;-56
2021/11/27 03:13:13;;;;;;;;;59.25;49.00;;;;;;;;6490039;31;9013;-55
2021/11/27 03:19:15;;;;;;;;;56.25;46.75;;;;;;;;6489147;31;8926;-55
2021/11/27 03:25:18;;;;;;;;;63.75;51.50;;;;;;;;6489646;46;8868;-55
2021/11/27 03:31:21;;;;;;;;;59.00;49.25;;;;;;;;6489662;39;8887;-56
2021/11/27 03:37:24;;;;;;;;;64.25;53.50;;;;;;;;6488648;39;8903;-54
2021/11/27 03:43:27;;;;;;;;;64.50;50.50;;;;;;;;6488460;39;8967;-53
2021/11/27 03:49:31;;;;;;;;;65.00;52.00;;;;;;;;6494220;36;9558;-55
2021/11/27 03:55:34;;;;;;;;;56.50;47.50;;;;;;;;6488399;39;8923;-52
2021/11/27 04:01:37;;;;;;;;;62.25;52.00;;;;;;;;6488994;46;8880;-55
2021/11/27 04:07:39;;;;;;;;;69.75;52.25;;;;;;;;6488259;46;8875;-56
2021/11/27 04:13:42;;;;;;;;;71.50;57.50;;;;;;;;6489053;39;8955;-55
2021/11/27 04:19:45;;;;;;;;;67.75;56.25;;;;;;;;6489340;39;9657;-56
2021/11/27 04:25:49;;;;;;;;;75.50;58.50;;;;;;;;6489560;31;9621;-55
2021/11/27 04:31:53;;;;;;;;;71.25;58.25;;;;;;;;6488197;39;8920;-52
2021/11/27 04:37:56;;;;;;;;;66.00;53.25;;;;;;;;6488637;39;8895;-56
2021/11/27 04:43:59;;;;;;;;;69.25;58.25;;;;;;;;6489208;39;9543;-56
2021/11/27 04:50:04;;;;;;;;;62.50;50.25;;;;;;;;6488618;39;8906;-54
2021/11/27 04:56:06;;;;;;;;;67.75;57.50;;;;;;;;6488483;31;8935;-54
2021/11/27 05:02:09;;;;;;;;;72.00;57.25;;;;;;;;6489852;39;9745;-56
2021/11/27 05:08:12;;;;;;;;;77.75;60.50;;;;;;;;6488015;47;8852;-55
2021/11/27 05:14:14;;;;;;;;;72.50;58.00;;;;;;;;6488361;39;8987;-57
2021/11/27 05:20:17;;;;;;;;;72.00;56.75;;;;;;;;6490319;39;8934;-54
2021/11/27 05:26:19;;;;;;;;;65.25;52.25;;;;;;;;6489741;31;8974;-53
